sensor_id;sensor_type;location;lat;lon;timestamp;P1;durP1;ratioP1;P2;durP2;ratioP2
23146;SDS011;11742;53.532;-1.478;2023-12-04T00:00:08;4.35;;;2.22;;
23146;SDS011;11742;53.532;-1.478;2023-12-04T00:02:52;4.35;;;2.58;;
23146;SDS011;11742;53.532;-1.478;2023-12-04T00:05:37;4.55;;;2.38;;
23146;SDS011;11742;53.532;-1.478;2023-12-04T00:08:21;3.50;;;2.40;;
23146;SDS011;11742;53.532;-1.478;2023-12-04T00:11:06;3.90;;;2.20;;
23146;SDS011;11742;53.532;-1.478;2023-12-04T00:13:51;5.35;;;2.47;;
23146;SDS011;11742;53.532;-1.478;2023-12-04T00:16:36;4.40;;;2.38;;
23146;SDS011;11742;53.532;-1.478;2023-12-04T00:19:20;3.47;;;2.25;;
23146;SDS011;11742;53.532;-1.478;2023-12-04T00:22:04;4.22;;;2.17;;
23146;SDS011;11742;53.532;-1.478;2023-12-04T00:24:48;3.78;;;2.33;;
23146;SDS011;11742;53.532;-1.478;2023-12-04T00:27:32;4.07;;;2.47;;
23146;SDS011;11742;53.532;-1.478;2023-12-04T00:30:17;4.47;;;2.20;;
23146;SDS011;11742;53.532;-1.478;2023-12-04T00:33:01;4.45;;;2.35;;
23146;SDS011;11742;53.532;-1.478;2023-12-04T00:35:46;3.60;;;2.17;;
23146;SDS011;11742;53.532;-1.478;2023-12-04T00:38:30;4.07;;;2.30;;
23146;SDS011;11742;53.532;-1.478;2023-12-04T00:41:14;4.18;;;2.50;;
23146;SDS011;11742;53.532;-1.478;2023-12-04T00:43:58;4.13;;;2.50;;
23146;SDS011;11742;53.532;-1.478;2023-12-04T00:46:43;6.05;;;2.65;;
23146;SDS011;11742;53.532;-1.478;2023-12-04T00:49:28;5.35;;;3.05;;
23146;SDS011;11742;53.532;-1.478;2023-12-04T00:52:12;4.43;;;2.60;;
23146;SDS011;11742;53.532;-1.478;2023-12-04T00:54:56;5.93;;;2.78;;
23146;SDS011;11742;53.532;-1.478;2023-12-04T00:57:40;5.10;;;2.25;;
23146;SDS011;11742;53.532;-1.478;2023-12-04T01:00:24;6.53;;;3.25;;
23146;SDS011;11742;53.532;-1.478;2023-12-04T01:03:09;5.10;;;2.70;;
23146;SDS011;11742;53.532;-1.478;2023-12-04T01:05:53;4.63;;;2.45;;
23146;SDS011;11742;53.532;-1.478;2023-12-04T01:08:37;4.97;;;2.45;;
23146;SDS011;11742;53.532;-1.478;2023-12-04T01:11:21;5.40;;;2.72;;
23146;SDS011;11742;53.532;-1.478;2023-12-04T01:14:06;5.18;;;2.67;;
23146;SDS011;11742;53.532;-1.478;2023-12-04T01:16:51;6.28;;;3.25;;
23146;SDS011;11742;53.532;-1.478;2023-12-04T01:19:35;5.07;;;2.72;;
23146;SDS011;11742;53.532;-1.478;2023-12-04T01:22:19;6.28;;;2.80;;
23146;SDS011;11742;53.532;-1.478;2023-12-04T01:25:04;6.13;;;2.97;;
23146;SDS011;11742;53.532;-1.478;2023-12-04T01:27:48;5.32;;;3.17;;
23146;SDS011;11742;53.532;-1.478;2023-12-04T01:30:33;5.85;;;2.88;;
23146;SDS011;11742;53.532;-1.478;2023-12-04T01:33:17;5.00;;;2.70;;
23146;SDS011;11742;53.532;-1.478;2023-12-04T01:36:01;4.70;;;2.33;;
23146;SDS011;11742;53.532;-1.478;2023-12-04T01:38:46;4.93;;;2.63;;
23146;SDS011;11742;53.532;-1.478;2023-12-04T01:41:31;6.05;;;3.38;;
23146;SDS011;11742;53.532;-1.478;2023-12-04T01:44:15;5.80;;;2.65;;
23146;SDS011;11742;53.532;-1.478;2023-12-04T01:46:59;4.80;;;2.40;;
23146;SDS011;11742;53.532;-1.478;2023-12-04T01:49:43;5.38;;;2.67;;
23146;SDS011;11742;53.532;-1.478;2023-12-04T01:52:28;4.65;;;2.35;;
23146;SDS011;11742;53.532;-1.478;2023-12-04T01:55:12;3.72;;;2.03;;
23146;SDS011;11742;53.532;-1.478;2023-12-04T01:57:58;5.07;;;2.47;;
23146;SDS011;11742;53.532;-1.478;2023-12-04T02:00:43;6.32;;;2.78;;
23146;SDS011;11742;53.532;-1.478;2023-12-04T02:03:28;4.13;;;2.65;;
23146;SDS011;11742;53.532;-1.478;2023-12-04T02:06:12;4.00;;;2.45;;
23146;SDS011;11742;53.532;-1.478;2023-12-04T02:08:57;4.38;;;2.40;;
23146;SDS011;11742;53.532;-1.478;2023-12-04T02:11:42;4.72;;;2.65;;
23146;SDS011;11742;53.532;-1.478;2023-12-04T02:14:26;6.03;;;3.10;;
23146;SDS011;11742;53.532;-1.478;2023-12-04T02:17:11;5.10;;;3.03;;
23146;SDS011;11742;53.532;-1.478;2023-12-04T02:19:56;4.38;;;2.45;;
23146;SDS011;11742;53.532;-1.478;2023-12-04T02:22:41;4.65;;;2.50;;
23146;SDS011;11742;53.532;-1.478;2023-12-04T02:25:25;5.07;;;2.40;;
23146;SDS011;11742;53.532;-1.478;2023-12-04T02:28:11;4.75;;;2.67;;
23146;SDS011;11742;53.532;-1.478;2023-12-04T02:30:58;5.63;;;2.65;;
23146;SDS011;11742;53.532;-1.478;2023-12-04T02:33:43;5.25;;;2.60;;
23146;SDS011;11742;53.532;-1.478;2023-12-04T02:36:31;6.03;;;3.42;;
23146;SDS011;11742;53.532;-1.478;2023-12-04T02:39:18;4.38;;;2.78;;
23146;SDS011;11742;53.532;-1.478;2023-12-04T02:42:03;4.53;;;2.65;;
23146;SDS011;11742;53.532;-1.478;2023-12-04T02:44:47;4.10;;;2.50;;
23146;SDS011;11742;53.532;-1.478;2023-12-04T02:47:33;4.93;;;2.80;;
23146;SDS011;11742;53.532;-1.478;2023-12-04T02:50:17;4.18;;;2.35;;
23146;SDS011;11742;53.532;-1.478;2023-12-04T02:53:02;4.43;;;2.63;;
23146;SDS011;11742;53.532;-1.478;2023-12-04T02:55:46;3.13;;;2.17;;
23146;SDS011;11742;53.532;-1.478;2023-12-04T02:58:30;4.15;;;2.33;;
23146;SDS011;11742;53.532;-1.478;2023-12-04T03:01:14;4.38;;;2.50;;
23146;SDS011;11742;53.532;-1.478;2023-12-04T03:03:58;5.15;;;2.60;;
23146;SDS011;11742;53.532;-1.478;2023-12-04T03:06:42;3.65;;;2.33;;
23146;SDS011;11742;53.532;-1.478;2023-12-04T03:09:26;4.70;;;2.53;;
23146;SDS011;11742;53.532;-1.478;2023-12-04T03:12:11;3.42;;;2.53;;
23146;SDS011;11742;53.532;-1.478;2023-12-04T03:14:55;3.50;;;2.00;;
23146;SDS011;11742;53.532;-1.478;2023-12-04T03:17:39;4.53;;;2.40;;
23146;SDS011;11742;53.532;-1.478;2023-12-04T03:20:23;4.75;;;2.55;;
23146;SDS011;11742;53.532;-1.478;2023-12-04T03:23:07;3.40;;;1.80;;
23146;SDS011;11742;53.532;-1.478;2023-12-04T03:25:51;3.88;;;2.20;;
23146;SDS011;11742;53.532;-1.478;2023-12-04T03:28:36;3.17;;;2.28;;
23146;SDS011;11742;53.532;-1.478;2023-12-04T03:31:21;4.10;;;2.78;;
23146;SDS011;11742;53.532;-1.478;2023-12-04T03:34:06;3.42;;;2.10;;
23146;SDS011;11742;53.532;-1.478;2023-12-04T03:36:51;5.10;;;2.50;;
23146;SDS011;11742;53.532;-1.478;2023-12-04T03:39:35;2.75;;;1.70;;
23146;SDS011;11742;53.532;-1.478;2023-12-04T03:42:19;3.50;;;2.13;;
23146;SDS011;11742;53.532;-1.478;2023-12-04T03:45:03;2.97;;;1.90;;
23146;SDS011;11742;53.532;-1.478;2023-12-04T03:47:48;3.45;;;1.92;;
23146;SDS011;11742;53.532;-1.478;2023-12-04T03:50:32;2.97;;;1.63;;
23146;SDS011;11742;53.532;-1.478;2023-12-04T03:53:17;2.63;;;1.63;;
23146;SDS011;11742;53.532;-1.478;2023-12-04T03:56:01;3.22;;;1.70;;
23146;SDS011;11742;53.532;-1.478;2023-12-04T03:58:45;3.38;;;1.73;;
23146;SDS011;11742;53.532;-1.478;2023-12-04T04:01:29;2.60;;;1.45;;
23146;SDS011;11742;53.532;-1.478;2023-12-04T04:04:14;1.77;;;1.40;;
23146;SDS011;11742;53.532;-1.478;2023-12-04T04:06:58;2.28;;;1.90;;
23146;SDS011;11742;53.532;-1.478;2023-12-04T04:09:42;2.53;;;1.55;;
23146;SDS011;11742;53.532;-1.478;2023-12-04T04:12:27;2.03;;;1.40;;
23146;SDS011;11742;53.532;-1.478;2023-12-04T04:15:11;2.40;;;1.52;;
23146;SDS011;11742;53.532;-1.478;2023-12-04T04:17:56;2.25;;;1.52;;
23146;SDS011;11742;53.532;-1.478;2023-12-04T04:20:40;2.55;;;1.50;;
23146;SDS011;11742;53.532;-1.478;2023-12-04T04:23:24;2.40;;;1.83;;
23146;SDS011;11742;53.532;-1.478;2023-12-04T04:26:08;3.03;;;1.90;;
23146;SDS011;11742;53.532;-1.478;2023-12-04T04:28:53;2.47;;;1.52;;
23146;SDS011;11742;53.532;-1.478;2023-12-04T04:31:37;2.63;;;1.70;;
23146;SDS011;11742;53.532;-1.478;2023-12-04T04:34:21;2.00;;;1.27;;
23146;SDS011;11742;53.532;-1.478;2023-12-04T04:37:05;3.35;;;1.98;;
23146;SDS011;11742;53.532;-1.478;2023-12-04T04:39:50;2.72;;;1.70;;
23146;SDS011;11742;53.532;-1.478;2023-12-04T04:42:34;2.53;;;1.60;;
23146;SDS011;11742;53.532;-1.478;2023-12-04T04:45:18;1.70;;;1.30;;
23146;SDS011;11742;53.532;-1.478;2023-12-04T04:48:02;2.05;;;1.40;;
23146;SDS011;11742;53.532;-1.478;2023-12-04T04:50:47;2.15;;;1.33;;
23146;SDS011;11742;53.532;-1.478;2023-12-04T04:53:31;2.15;;;1.63;;
23146;SDS011;11742;53.532;-1.478;2023-12-04T04:56:15;2.60;;;1.65;;
23146;SDS011;11742;53.532;-1.478;2023-12-04T04:58:59;2.40;;;1.40;;
23146;SDS011;11742;53.532;-1.478;2023-12-04T05:01:44;2.25;;;1.42;;
23146;SDS011;11742;53.532;-1.478;2023-12-04T05:04:28;2.45;;;1.63;;
23146;SDS011;11742;53.532;-1.478;2023-12-04T05:07:12;2.33;;;1.38;;
23146;SDS011;11742;53.532;-1.478;2023-12-04T05:09:56;1.95;;;1.50;;
23146;SDS011;11742;53.532;-1.478;2023-12-04T05:12:41;1.17;;;1.00;;
23146;SDS011;11742;53.532;-1.478;2023-12-04T05:15:25;1.13;;;1.02;;
23146;SDS011;11742;53.532;-1.478;2023-12-04T05:18:09;2.20;;;1.27;;
23146;SDS011;11742;53.532;-1.478;2023-12-04T05:20:53;2.22;;;1.38;;
23146;SDS011;11742;53.532;-1.478;2023-12-04T05:23:37;1.58;;;1.30;;
23146;SDS011;11742;53.532;-1.478;2023-12-04T05:26:21;1.58;;;1.30;;
23146;SDS011;11742;53.532;-1.478;2023-12-04T05:29:05;2.05;;;1.58;;
23146;SDS011;11742;53.532;-1.478;2023-12-04T05:31:50;1.63;;;1.30;;
23146;SDS011;11742;53.532;-1.478;2023-12-04T05:34:34;1.75;;;1.20;;
23146;SDS011;11742;53.532;-1.478;2023-12-04T05:37:18;1.40;;;1.20;;
23146;SDS011;11742;53.532;-1.478;2023-12-04T05:40:03;1.80;;;1.40;;
23146;SDS011;11742;53.532;-1.478;2023-12-04T05:42:48;2.20;;;1.35;;
23146;SDS011;11742;53.532;-1.478;2023-12-04T05:45:33;2.33;;;1.60;;
23146;SDS011;11742;53.532;-1.478;2023-12-04T05:48:17;2.25;;;1.40;;
23146;SDS011;11742;53.532;-1.478;2023-12-04T05:51:01;1.40;;;0.90;;
23146;SDS011;11742;53.532;-1.478;2023-12-04T05:53:46;1.30;;;1.00;;
23146;SDS011;11742;53.532;-1.478;2023-12-04T05:56:30;1.48;;;1.20;;
23146;SDS011;11742;53.532;-1.478;2023-12-04T05:59:15;1.70;;;1.20;;
23146;SDS011;11742;53.532;-1.478;2023-12-04T06:01:59;1.65;;;1.30;;
23146;SDS011;11742;53.532;-1.478;2023-12-04T06:04:44;1.30;;;1.10;;
23146;SDS011;11742;53.532;-1.478;2023-12-04T06:07:28;1.25;;;1.08;;
23146;SDS011;11742;53.532;-1.478;2023-12-04T06:10:12;2.17;;;1.20;;
23146;SDS011;11742;53.532;-1.478;2023-12-04T06:12:57;2.50;;;1.30;;
23146;SDS011;11742;53.532;-1.478;2023-12-04T06:15:41;1.45;;;1.17;;
23146;SDS011;11742;53.532;-1.478;2023-12-04T06:18:26;1.70;;;1.42;;
23146;SDS011;11742;53.532;-1.478;2023-12-04T06:21:10;1.30;;;1.20;;
23146;SDS011;11742;53.532;-1.478;2023-12-04T06:23:54;1.52;;;1.10;;
23146;SDS011;11742;53.532;-1.478;2023-12-04T06:26:40;1.67;;;1.17;;
23146;SDS011;11742;53.532;-1.478;2023-12-04T06:29:27;1.80;;;1.30;;
23146;SDS011;11742;53.532;-1.478;2023-12-04T06:32:12;2.47;;;1.30;;
23146;SDS011;11742;53.532;-1.478;2023-12-04T06:34:56;1.80;;;1.05;;
23146;SDS011;11742;53.532;-1.478;2023-12-04T06:37:41;1.50;;;1.17;;
23146;SDS011;11742;53.532;-1.478;2023-12-04T06:40:26;1.33;;;1.10;;
23146;SDS011;11742;53.532;-1.478;2023-12-04T06:43:11;1.50;;;1.27;;
23146;SDS011;11742;53.532;-1.478;2023-12-04T06:45:56;1.20;;;1.10;;
23146;SDS011;11742;53.532;-1.478;2023-12-04T06:48:42;1.50;;;1.13;;
23146;SDS011;11742;53.532;-1.478;2023-12-04T06:51:27;2.38;;;1.52;;
23146;SDS011;11742;53.532;-1.478;2023-12-04T06:54:12;1.23;;;1.13;;
23146;SDS011;11742;53.532;-1.478;2023-12-04T06:56:57;1.40;;;1.02;;
23146;SDS011;11742;53.532;-1.478;2023-12-04T06:59:42;1.20;;;1.10;;
23146;SDS011;11742;53.532;-1.478;2023-12-04T07:02:26;1.88;;;1.50;;
23146;SDS011;11742;53.532;-1.478;2023-12-04T07:05:11;1.15;;;1.05;;
23146;SDS011;11742;53.532;-1.478;2023-12-04T07:07:55;2.22;;;1.40;;
23146;SDS011;11742;53.532;-1.478;2023-12-04T07:10:39;2.00;;;1.20;;
23146;SDS011;11742;53.532;-1.478;2023-12-04T07:13:24;1.88;;;1.23;;
23146;SDS011;11742;53.532;-1.478;2023-12-04T07:16:08;1.58;;;1.20;;
23146;SDS011;11742;53.532;-1.478;2023-12-04T07:18:53;1.00;;;0.90;;
23146;SDS011;11742;53.532;-1.478;2023-12-04T07:21:38;1.30;;;1.20;;
23146;SDS011;11742;53.532;-1.478;2023-12-04T07:24:23;1.58;;;1.27;;
23146;SDS011;11742;53.532;-1.478;2023-12-04T07:27:07;1.45;;;1.30;;
23146;SDS011;11742;53.532;-1.478;2023-12-04T07:29:52;1.52;;;1.23;;
23146;SDS011;11742;53.532;-1.478;2023-12-04T07:32:36;1.50;;;1.10;;
23146;SDS011;11742;53.532;-1.478;2023-12-04T07:35:21;1.52;;;1.13;;
23146;SDS011;11742;53.532;-1.478;2023-12-04T07:38:05;1.50;;;1.20;;
23146;SDS011;11742;53.532;-1.478;2023-12-04T07:40:49;1.30;;;1.10;;
23146;SDS011;11742;53.532;-1.478;2023-12-04T07:43:33;1.70;;;1.10;;
23146;SDS011;11742;53.532;-1.478;2023-12-04T07:46:18;1.48;;;1.10;;
23146;SDS011;11742;53.532;-1.478;2023-12-04T07:49:02;1.10;;;1.00;;
23146;SDS011;11742;53.532;-1.478;2023-12-04T07:51:47;1.10;;;1.00;;
23146;SDS011;11742;53.532;-1.478;2023-12-04T07:54:31;1.20;;;1.08;;
23146;SDS011;11742;53.532;-1.478;2023-12-04T07:57:16;1.60;;;1.17;;
23146;SDS011;11742;53.532;-1.478;2023-12-04T08:00:01;1.42;;;1.30;;
23146;SDS011;11742;53.532;-1.478;2023-12-04T08:02:45;1.65;;;1.40;;
23146;SDS011;11742;53.532;-1.478;2023-12-04T08:05:30;1.60;;;1.20;;
23146;SDS011;11742;53.532;-1.478;2023-12-04T08:08:15;1.48;;;1.05;;
23146;SDS011;11742;53.532;-1.478;2023-12-04T08:10:59;1.10;;;0.98;;
23146;SDS011;11742;53.532;-1.478;2023-12-04T08:13:43;1.20;;;1.08;;
23146;SDS011;11742;53.532;-1.478;2023-12-04T08:16:28;1.02;;;0.93;;
23146;SDS011;11742;53.532;-1.478;2023-12-04T08:19:13;1.63;;;1.15;;
23146;SDS011;11742;53.532;-1.478;2023-12-04T08:22:00;1.50;;;1.00;;
23146;SDS011;11742;53.532;-1.478;2023-12-04T08:24:44;2.42;;;1.48;;
23146;SDS011;11742;53.532;-1.478;2023-12-04T08:27:29;1.27;;;1.02;;
23146;SDS011;11742;53.532;-1.478;2023-12-04T08:30:16;1.75;;;1.30;;
23146;SDS011;11742;53.532;-1.478;2023-12-04T08:33:00;1.92;;;1.35;;
23146;SDS011;11742;53.532;-1.478;2023-12-04T08:35:44;2.55;;;1.30;;
23146;SDS011;11742;53.532;-1.478;2023-12-04T08:38:29;1.35;;;1.25;;
23146;SDS011;11742;53.532;-1.478;2023-12-04T08:41:13;2.72;;;1.20;;
23146;SDS011;11742;53.532;-1.478;2023-12-04T08:43:57;2.10;;;1.40;;
23146;SDS011;11742;53.532;-1.478;2023-12-04T08:46:42;1.95;;;1.30;;
23146;SDS011;11742;53.532;-1.478;2023-12-04T08:49:28;1.50;;;1.20;;
23146;SDS011;11742;53.532;-1.478;2023-12-04T08:52:12;2.58;;;1.33;;
23146;SDS011;11742;53.532;-1.478;2023-12-04T08:54:56;1.17;;;1.08;;
23146;SDS011;11742;53.532;-1.478;2023-12-04T08:57:40;2.10;;;1.30;;
23146;SDS011;11742;53.532;-1.478;2023-12-04T09:00:25;1.52;;;1.25;;
23146;SDS011;11742;53.532;-1.478;2023-12-04T09:03:09;2.05;;;1.30;;
23146;SDS011;11742;53.532;-1.478;2023-12-04T09:05:54;1.65;;;1.20;;
23146;SDS011;11742;53.532;-1.478;2023-12-04T09:08:39;1.60;;;1.40;;
23146;SDS011;11742;53.532;-1.478;2023-12-04T09:11:23;2.30;;;1.50;;
23146;SDS011;11742;53.532;-1.478;2023-12-04T09:14:07;1.65;;;1.50;;
23146;SDS011;11742;53.532;-1.478;2023-12-04T09:16:52;2.75;;;1.80;;
23146;SDS011;11742;53.532;-1.478;2023-12-04T09:19:36;2.72;;;1.58;;
23146;SDS011;11742;53.532;-1.478;2023-12-04T09:22:21;2.75;;;1.70;;
23146;SDS011;11742;53.532;-1.478;2023-12-04T09:25:05;3.08;;;1.52;;
23146;SDS011;11742;53.532;-1.478;2023-12-04T09:27:50;3.53;;;1.75;;
23146;SDS011;11742;53.532;-1.478;2023-12-04T09:30:35;3.42;;;1.77;;
23146;SDS011;11742;53.532;-1.478;2023-12-04T09:33:21;3.95;;;1.90;;
23146;SDS011;11742;53.532;-1.478;2023-12-04T09:36:05;2.83;;;1.80;;
23146;SDS011;11742;53.532;-1.478;2023-12-04T09:38:50;4.28;;;1.80;;
23146;SDS011;11742;53.532;-1.478;2023-12-04T09:41:34;3.63;;;2.00;;
23146;SDS011;11742;53.532;-1.478;2023-12-04T09:44:19;2.42;;;1.50;;
23146;SDS011;11742;53.532;-1.478;2023-12-04T09:47:05;2.70;;;1.70;;
23146;SDS011;11742;53.532;-1.478;2023-12-04T09:49:51;3.47;;;1.83;;
23146;SDS011;11742;53.532;-1.478;2023-12-04T09:52:37;3.33;;;1.95;;
23146;SDS011;11742;53.532;-1.478;2023-12-04T09:55:22;2.67;;;1.75;;
23146;SDS011;11742;53.532;-1.478;2023-12-04T09:58:06;3.55;;;1.90;;
23146;SDS011;11742;53.532;-1.478;2023-12-04T10:00:53;3.35;;;1.85;;
23146;SDS011;11742;53.532;-1.478;2023-12-04T10:03:38;2.60;;;1.70;;
23146;SDS011;11742;53.532;-1.478;2023-12-04T10:06:28;3.15;;;1.90;;
23146;SDS011;11742;53.532;-1.478;2023-12-04T10:09:13;3.40;;;1.92;;
23146;SDS011;11742;53.532;-1.478;2023-12-04T10:11:57;3.72;;;1.98;;
23146;SDS011;11742;53.532;-1.478;2023-12-04T10:14:41;4.00;;;1.80;;
23146;SDS011;11742;53.532;-1.478;2023-12-04T10:17:25;2.67;;;1.70;;
23146;SDS011;11742;53.532;-1.478;2023-12-04T10:20:18;3.10;;;2.03;;
23146;SDS011;11742;53.532;-1.478;2023-12-04T10:23:03;3.05;;;1.88;;
23146;SDS011;11742;53.532;-1.478;2023-12-04T10:25:51;4.05;;;2.08;;
23146;SDS011;11742;53.532;-1.478;2023-12-04T10:28:36;2.22;;;1.48;;
23146;SDS011;11742;53.532;-1.478;2023-12-04T10:31:20;3.42;;;1.52;;
23146;SDS011;11742;53.532;-1.478;2023-12-04T10:34:07;5.65;;;2.05;;
23146;SDS011;11742;53.532;-1.478;2023-12-04T10:36:55;13.77;;;2.10;;
23146;SDS011;11742;53.532;-1.478;2023-12-04T10:39:45;5.65;;;2.47;;
23146;SDS011;11742;53.532;-1.478;2023-12-04T10:42:31;8.07;;;2.50;;
23146;SDS011;11742;53.532;-1.478;2023-12-04T10:45:15;7.18;;;2.13;;
23146;SDS011;11742;53.532;-1.478;2023-12-04T10:48:00;7.93;;;2.17;;
23146;SDS011;11742;53.532;-1.478;2023-12-04T10:50:48;8.60;;;2.30;;
23146;SDS011;11742;53.532;-1.478;2023-12-04T10:53:33;7.13;;;2.00;;
23146;SDS011;11742;53.532;-1.478;2023-12-04T10:56:25;3.45;;;1.80;;
23146;SDS011;11742;53.532;-1.478;2023-12-04T10:59:15;3.75;;;1.80;;
23146;SDS011;11742;53.532;-1.478;2023-12-04T11:02:07;3.65;;;1.92;;
23146;SDS011;11742;53.532;-1.478;2023-12-04T11:05:09;3.45;;;1.90;;
23146;SDS011;11742;53.532;-1.478;2023-12-04T11:08:01;2.55;;;1.77;;
23146;SDS011;11742;53.532;-1.478;2023-12-04T11:11:00;6.05;;;2.20;;
23146;SDS011;11742;53.532;-1.478;2023-12-04T11:13:54;9.55;;;3.30;;
23146;SDS011;11742;53.532;-1.478;2023-12-04T11:16:42;4.00;;;2.00;;
23146;SDS011;11742;53.532;-1.478;2023-12-04T11:20:04;4.30;;;2.20;;
23146;SDS011;11742;53.532;-1.478;2023-12-04T11:22:55;3.15;;;2.33;;
23146;SDS011;11742;53.532;-1.478;2023-12-04T11:25:40;4.82;;;2.33;;
23146;SDS011;11742;53.532;-1.478;2023-12-04T11:28:25;3.13;;;2.00;;
23146;SDS011;11742;53.532;-1.478;2023-12-04T11:31:11;3.85;;;2.15;;
23146;SDS011;11742;53.532;-1.478;2023-12-04T11:34:00;4.40;;;2.25;;
23146;SDS011;11742;53.532;-1.478;2023-12-04T11:36:46;3.38;;;2.15;;
23146;SDS011;11742;53.532;-1.478;2023-12-04T11:39:33;3.72;;;2.00;;
23146;SDS011;11742;53.532;-1.478;2023-12-04T11:42:19;4.80;;;2.58;;
23146;SDS011;11742;53.532;-1.478;2023-12-04T11:45:07;3.80;;;1.95;;
23146;SDS011;11742;53.532;-1.478;2023-12-04T11:47:56;3.92;;;2.00;;
23146;SDS011;11742;53.532;-1.478;2023-12-04T11:50:44;3.40;;;2.10;;
23146;SDS011;11742;53.532;-1.478;2023-12-04T11:53:29;2.88;;;1.90;;
23146;SDS011;11742;53.532;-1.478;2023-12-04T11:56:13;3.35;;;1.70;;
23146;SDS011;11742;53.532;-1.478;2023-12-04T11:59:04;3.75;;;2.05;;
23146;SDS011;11742;53.532;-1.478;2023-12-04T12:01:50;4.35;;;1.80;;
23146;SDS011;11742;53.532;-1.478;2023-12-04T12:04:37;2.55;;;1.73;;
23146;SDS011;11742;53.532;-1.478;2023-12-04T12:07:21;5.57;;;2.25;;
23146;SDS011;11742;53.532;-1.478;2023-12-04T12:10:07;2.20;;;1.80;;
23146;SDS011;11742;53.532;-1.478;2023-12-04T12:12:53;5.78;;;1.70;;
23146;SDS011;11742;53.532;-1.478;2023-12-04T12:15:37;2.53;;;1.90;;
23146;SDS011;11742;53.532;-1.478;2023-12-04T12:18:22;5.10;;;2.20;;
23146;SDS011;11742;53.532;-1.478;2023-12-04T12:21:07;4.10;;;2.38;;
23146;SDS011;11742;53.532;-1.478;2023-12-04T12:23:51;2.80;;;1.83;;
23146;SDS011;11742;53.532;-1.478;2023-12-04T12:26:35;4.65;;;1.90;;
23146;SDS011;11742;53.532;-1.478;2023-12-04T12:29:20;5.28;;;1.83;;
23146;SDS011;11742;53.532;-1.478;2023-12-04T12:32:04;4.25;;;2.00;;
23146;SDS011;11742;53.532;-1.478;2023-12-04T12:34:48;3.28;;;2.05;;
23146;SDS011;11742;53.532;-1.478;2023-12-04T12:37:33;2.28;;;1.60;;
23146;SDS011;11742;53.532;-1.478;2023-12-04T12:40:20;4.30;;;1.85;;
23146;SDS011;11742;53.532;-1.478;2023-12-04T12:43:08;3.85;;;1.77;;
23146;SDS011;11742;53.532;-1.478;2023-12-04T12:45:53;3.92;;;2.08;;
23146;SDS011;11742;53.532;-1.478;2023-12-04T12:48:38;2.00;;;1.70;;
23146;SDS011;11742;53.532;-1.478;2023-12-04T12:51:23;2.35;;;1.95;;
23146;SDS011;11742;53.532;-1.478;2023-12-04T12:54:07;2.72;;;1.60;;
23146;SDS011;11742;53.532;-1.478;2023-12-04T12:56:51;4.18;;;1.98;;
23146;SDS011;11742;53.532;-1.478;2023-12-04T12:59:35;2.72;;;1.60;;
23146;SDS011;11742;53.532;-1.478;2023-12-04T13:02:22;2.33;;;1.70;;
23146;SDS011;11742;53.532;-1.478;2023-12-04T13:05:06;3.05;;;1.75;;
23146;SDS011;11742;53.532;-1.478;2023-12-04T13:07:51;3.22;;;1.92;;
23146;SDS011;11742;53.532;-1.478;2023-12-04T13:10:35;4.65;;;1.73;;
23146;SDS011;11742;53.532;-1.478;2023-12-04T13:13:19;2.90;;;1.80;;
23146;SDS011;11742;53.532;-1.478;2023-12-04T13:16:04;2.38;;;1.60;;
23146;SDS011;11742;53.532;-1.478;2023-12-04T13:18:49;2.72;;;1.88;;
23146;SDS011;11742;53.532;-1.478;2023-12-04T13:21:33;3.08;;;1.70;;
23146;SDS011;11742;53.532;-1.478;2023-12-04T13:24:18;3.38;;;1.80;;
23146;SDS011;11742;53.532;-1.478;2023-12-04T13:27:03;3.20;;;1.80;;
23146;SDS011;11742;53.532;-1.478;2023-12-04T13:29:47;3.33;;;1.77;;
23146;SDS011;11742;53.532;-1.478;2023-12-04T13:32:34;2.75;;;1.65;;
23146;SDS011;11742;53.532;-1.478;2023-12-04T13:35:19;2.28;;;1.75;;
23146;SDS011;11742;53.532;-1.478;2023-12-04T13:38:03;2.97;;;1.80;;
23146;SDS011;11742;53.532;-1.478;2023-12-04T13:40:51;3.05;;;1.80;;
23146;SDS011;11742;53.532;-1.478;2023-12-04T13:44:02;2.72;;;1.70;;
23146;SDS011;11742;53.532;-1.478;2023-12-04T13:46:47;1.80;;;1.50;;
23146;SDS011;11742;53.532;-1.478;2023-12-04T13:49:33;2.63;;;1.77;;
23146;SDS011;11742;53.532;-1.478;2023-12-04T13:52:17;1.90;;;1.73;;
23146;SDS011;11742;53.532;-1.478;2023-12-04T13:55:06;2.03;;;1.67;;
23146;SDS011;11742;53.532;-1.478;2023-12-04T13:58:04;2.92;;;1.70;;
23146;SDS011;11742;53.532;-1.478;2023-12-04T14:00:48;2.85;;;1.67;;
23146;SDS011;11742;53.532;-1.478;2023-12-04T14:03:32;2.55;;;1.52;;
23146;SDS011;11742;53.532;-1.478;2023-12-04T14:06:18;2.63;;;1.52;;
23146;SDS011;11742;53.532;-1.478;2023-12-04T14:09:02;1.75;;;1.55;;
23146;SDS011;11742;53.532;-1.478;2023-12-04T14:11:53;2.63;;;1.65;;
23146;SDS011;11742;53.532;-1.478;2023-12-04T14:14:38;1.83;;;1.50;;
23146;SDS011;11742;53.532;-1.478;2023-12-04T14:17:22;2.92;;;1.40;;
23146;SDS011;11742;53.532;-1.478;2023-12-04T14:20:07;2.05;;;1.50;;
23146;SDS011;11742;53.532;-1.478;2023-12-04T14:22:58;2.38;;;1.58;;
23146;SDS011;11742;53.532;-1.478;2023-12-04T14:25:42;2.83;;;1.65;;
23146;SDS011;11742;53.532;-1.478;2023-12-04T14:28:27;2.33;;;1.60;;
23146;SDS011;11742;53.532;-1.478;2023-12-04T14:31:11;2.17;;;1.48;;
23146;SDS011;11742;53.532;-1.478;2023-12-04T14:33:56;2.85;;;1.90;;
23146;SDS011;11742;53.532;-1.478;2023-12-04T14:36:40;3.20;;;1.73;;
23146;SDS011;11742;53.532;-1.478;2023-12-04T14:39:24;1.67;;;1.40;;
23146;SDS011;11742;53.532;-1.478;2023-12-04T14:42:09;1.83;;;1.52;;
23146;SDS011;11742;53.532;-1.478;2023-12-04T14:44:53;1.83;;;1.48;;
23146;SDS011;11742;53.532;-1.478;2023-12-04T14:47:37;2.50;;;1.50;;
23146;SDS011;11742;53.532;-1.478;2023-12-04T14:50:23;1.95;;;1.40;;
23146;SDS011;11742;53.532;-1.478;2023-12-04T14:53:07;1.77;;;1.42;;
23146;SDS011;11742;53.532;-1.478;2023-12-04T14:55:59;2.47;;;1.50;;
23146;SDS011;11742;53.532;-1.478;2023-12-04T14:59:02;1.95;;;1.50;;
23146;SDS011;11742;53.532;-1.478;2023-12-04T15:02:13;1.58;;;1.42;;
23146;SDS011;11742;53.532;-1.478;2023-12-04T15:05:16;1.50;;;1.40;;
23146;SDS011;11742;53.532;-1.478;2023-12-04T15:08:00;1.98;;;1.40;;
23146;SDS011;11742;53.532;-1.478;2023-12-04T15:11:03;2.65;;;1.80;;
23146;SDS011;11742;53.532;-1.478;2023-12-04T15:14:14;1.75;;;1.40;;
23146;SDS011;11742;53.532;-1.478;2023-12-04T15:17:19;1.48;;;1.23;;
23146;SDS011;11742;53.532;-1.478;2023-12-04T15:20:13;1.80;;;1.40;;
23146;SDS011;11742;53.532;-1.478;2023-12-04T15:23:16;3.42;;;2.10;;
23146;SDS011;11742;53.532;-1.478;2023-12-04T15:26:02;2.05;;;1.20;;
23146;SDS011;11742;53.532;-1.478;2023-12-04T15:28:47;2.05;;;1.67;;
23146;SDS011;11742;53.532;-1.478;2023-12-04T15:31:31;1.80;;;1.38;;
23146;SDS011;11742;53.532;-1.478;2023-12-04T15:34:16;1.70;;;1.25;;
23146;SDS011;11742;53.532;-1.478;2023-12-04T15:37:01;2.67;;;1.45;;
23146;SDS011;11742;53.532;-1.478;2023-12-04T15:39:46;2.20;;;1.50;;
23146;SDS011;11742;53.532;-1.478;2023-12-04T15:42:30;2.10;;;1.40;;
23146;SDS011;11742;53.532;-1.478;2023-12-04T15:45:14;2.35;;;1.40;;
23146;SDS011;11742;53.532;-1.478;2023-12-04T15:47:59;2.42;;;1.40;;
23146;SDS011;11742;53.532;-1.478;2023-12-04T15:50:43;2.45;;;1.52;;
23146;SDS011;11742;53.532;-1.478;2023-12-04T15:53:28;1.55;;;1.35;;
23146;SDS011;11742;53.532;-1.478;2023-12-04T15:56:12;2.25;;;1.50;;
23146;SDS011;11742;53.532;-1.478;2023-12-04T15:58:56;2.40;;;1.60;;
23146;SDS011;11742;53.532;-1.478;2023-12-04T16:01:40;1.90;;;1.50;;
23146;SDS011;11742;53.532;-1.478;2023-12-04T16:04:24;2.70;;;1.90;;
23146;SDS011;11742;53.532;-1.478;2023-12-04T16:07:08;2.50;;;1.67;;
23146;SDS011;11742;53.532;-1.478;2023-12-04T16:09:53;4.03;;;2.25;;
23146;SDS011;11742;53.532;-1.478;2023-12-04T16:12:37;10.90;;;2.95;;
23146;SDS011;11742;53.532;-1.478;2023-12-04T16:15:21;23.45;;;4.80;;
23146;SDS011;11742;53.532;-1.478;2023-12-04T16:18:06;20.08;;;4.68;;
23146;SDS011;11742;53.532;-1.478;2023-12-04T16:20:50;18.05;;;4.05;;